Time;durP1;ratioP1;P1;durP2;ratioP2;P2;SDS_P1;SDS_P2;PMS_P1;PMS_P2;Temp;Humidity;BMP_temperature;BMP_pressure;BME280_temperature;BME280_humidity;BME280_pressure;Samples;Min_cycle;Max_cycle;Signal;HPM_P1;HPM_P2
2022/01/18 00:08:46;;;;;;;0.10;0.10;;;;;;;8.18;69.92;103928.63;5712975;22;20102;-93
2022/01/18 00:17:34;;;;;;;0.10;0.10;;;;;;;8.05;69.76;103936.03;5703074;22;20067;-89
2022/01/18 00:23:50;;;;;;;;;;;;;;;8.08;69.18;103936.16;5465355;22;20483;-91
2022/01/18 00:40:10;;;;;;;0.10;0.10;;;;;;;7.94;69.41;103948.81;4987059;28;20461;-91
2022/01/18 00:42:41;;;;;;;0.20;0.20;;;;;;;7.90;70.25;103956.53;4944208;28;20089;-90
2022/01/18 00:48:22;;;;;;;0.10;0.10;;;;;;;7.90;70.18;103957.44;5078404;22;20064;-91
2022/01/18 00:53:12;;;;;;;0.10;0.10;;;;;;;7.89;69.15;103952.13;5007104;28;20081;-90
2022/01/18 00:55:17;;;;;;;0.10;0.10;;;;;;;7.75;70.58;103949.78;4955373;28;20477;-91
2022/01/18 00:58:12;;;;;;;0.10;0.10;;;;;;;7.73;70.23;103951.47;5001878;28;20038;-91
2022/01/18 01:00:55;;;;;;;0.10;0.10;;;;;;;7.74;70.13;103952.38;5008615;28;20045;-91
2022/01/18 01:04:12;;;;;;;0.10;0.10;;;;;;;7.85;69.55;103944.88;5007200;28;20453;-91
2022/01/18 01:06:50;;;;;;;0.10;0.10;;;;;;;7.69;69.88;103948.63;4988335;28;20441;-91
2022/01/18 01:09:30;;;;;;;0.10;0.10;;;;;;;7.71;69.86;103947.88;5005946;28;20508;-90
2022/01/18 01:13:59;;;;;;;0.10;0.10;;;;;;;7.74;70.08;103941.81;5004428;28;20053;-90
2022/01/18 01:15:18;;;;;;;0.10;0.10;;;;;;;7.63;69.94;103948.34;4927190;29;20039;-90
2022/01/18 01:17:55;;;;;;;0.10;0.10;;;;;;;7.58;69.54;103945.53;4934539;29;20499;-90
2022/01/18 01:54:23;;;;;;;0.10;0.10;;;;;;;7.23;69.68;103947.56;6164586;22;20539;-87
2022/01/18 01:56:49;;;;;;;0.15;0.15;;;;;;;7.19;69.54;103953.53;6223845;23;20015;-87
2022/01/18 01:59:15;;;;;;;0.10;0.10;;;;;;;7.10;69.46;103954.00;6223081;23;20001;-88
2022/01/18 02:01:45;;;;;;;0.10;0.10;;;;;;;7.01;69.13;103961.53;6224276;23;20103;-88
2022/01/18 02:04:12;;;;;;;0.10;0.10;;;;;;;6.89;68.99;103959.22;6223905;23;20008;-88
2022/01/18 02:06:38;;;;;;;0.20;0.20;;;;;;;6.78;68.64;103957.00;6197772;23;20074;-89
2022/01/18 02:09:05;;;;;;;0.10;0.10;;;;;;;6.67;68.88;103950.34;6224096;23;20009;-88
2022/01/18 02:11:32;;;;;;;0.10;0.10;;;;;;;6.63;68.66;103953.69;6223876;23;20000;-87
2022/01/18 02:13:59;;;;;;;0.10;0.10;;;;;;;6.62;68.77;103946.59;6223752;23;20008;-89
2022/01/18 02:21:57;;;;;;;0.10;0.10;;;;;;;6.72;69.53;103943.53;6223797;23;20095;-87
2022/01/18 02:24:24;;;;;;;0.10;0.10;;;;;;;6.77;69.42;103936.75;6222978;23;20013;-88
2022/01/18 02:26:50;;;;;;;0.08;0.08;;;;;;;6.77;69.67;103939.38;6223255;23;20017;-87
2022/01/18 02:29:17;;;;;;;0.10;0.10;;;;;;;6.82;69.94;103946.59;6223189;23;20407;-87
2022/01/18 02:31:43;;;;;;;0.10;0.10;;;;;;;6.84;69.69;103942.31;6223580;23;20444;-88
2022/01/18 02:34:13;;;;;;;0.10;0.10;;;;;;;6.88;69.67;103941.59;6223805;23;20095;-87
2022/01/18 02:36:39;;;;;;;0.10;0.10;;;;;;;6.87;69.48;103942.47;6223760;23;20009;-88
2022/01/18 02:39:07;;;;;;;0.10;0.10;;;;;;;6.83;69.07;103937.84;6223449;23;20314;-87
2022/01/18 02:41:34;;;;;;;0.10;0.10;;;;;;;6.76;69.46;103934.94;6223162;23;20127;-88
2022/01/18 02:44:03;;;;;;;0.17;0.17;;;;;;;6.76;69.54;103942.84;6222959;23;20005;-87
2022/01/18 02:46:29;;;;;;;0.10;0.10;;;;;;;6.70;69.25;103941.69;6216753;23;20031;-87
2022/01/18 02:48:56;;;;;;;0.10;0.10;;;;;;;6.68;69.27;103938.97;6215753;23;20005;-87
2022/01/18 02:51:23;;;;;;;0.10;0.10;;;;;;;6.60;69.34;103937.72;6216852;23;20005;-87
2022/01/18 02:54:09;;;;;;;0.10;0.10;;;;;;;6.63;68.96;103935.22;6216490;23;20020;-87
2022/01/18 02:59:32;;;;;;;0.10;0.10;;;;;;;6.59;69.34;103942.09;5110090;27;20489;-85
2022/01/18 03:04:48;;;;;;;0.20;0.20;;;;;;;6.58;69.23;103939.34;5092053;28;20588;-86
2022/01/18 03:07:15;;;;;;;0.15;0.15;;;;;;;6.58;69.49;103936.72;5100122;28;20055;-86
2022/01/18 03:09:42;;;;;;;0.10;0.10;;;;;;;6.60;69.68;103935.06;5091695;28;20102;-85
2022/01/18 03:12:10;;;;;;;0.10;0.10;;;;;;;6.63;69.41;103932.59;5086645;28;20036;-87
2022/01/18 03:14:36;;;;;;;0.10;0.10;;;;;;;6.66;69.58;103942.38;5087939;28;20033;-85
2022/01/18 03:17:03;;;;;;;24.30;1.45;;;;;;;6.68;69.76;103944.25;5092150;28;20035;-85
2022/01/18 03:19:29;;;;;;;0.10;0.10;;;;;;;6.72;69.79;103948.81;5099110;28;20036;-84
2022/01/18 03:21:56;;;;;;;0.10;0.10;;;;;;;6.73;69.78;103944.44;5093790;28;20039;-85
2022/01/18 03:29:51;;;;;;;0.10;0.10;;;;;;;6.78;69.72;103941.19;5063402;28;20029;-86
2022/01/18 03:32:17;;;;;;;0.10;0.10;;;;;;;6.80;69.85;103947.44;5069505;28;20055;-86
2022/01/18 03:34:43;;;;;;;0.10;0.10;;;;;;;6.82;69.38;103957.13;5059820;28;20553;-87
2022/01/18 03:37:09;;;;;;;0.10;0.10;;;;;;;6.85;69.66;103957.28;5059138;28;20025;-86
2022/01/18 03:39:36;;;;;;;0.10;0.10;;;;;;;6.84;69.82;103952.84;5057661;28;20079;-86
2022/01/18 03:44:49;;;;;;;0.10;0.10;;;;;;;6.60;69.42;103948.25;5063002;28;20438;-86
2022/01/18 03:47:17;;;;;;;0.10;0.10;;;;;;;6.46;69.09;103950.25;5050111;28;20116;-86
2022/01/18 03:49:43;;;;;;;0.20;0.20;;;;;;;6.32;68.95;103957.50;5065648;28;20040;-87
2022/01/18 03:52:09;;;;;;;0.10;0.10;;;;;;;6.21;68.83;103958.72;5064649;28;20040;-86
2022/01/18 03:54:42;;;;;;;0.10;0.10;;;;;;;6.10;68.71;103959.06;5064529;28;20493;-86
2022/01/18 03:57:09;;;;;;;0.10;0.10;;;;;;;6.01;68.76;103966.53;5063977;28;20146;-86
2022/01/18 03:59:35;;;;;;;0.10;0.10;;;;;;;5.94;68.80;103969.66;5053892;28;20088;-87
2022/01/18 04:02:01;;;;;;;0.10;0.10;;;;;;;5.88;68.79;103964.06;5064694;28;20120;-87
2022/01/18 04:04:28;;;;;;;0.10;0.10;;;;;;;5.82;68.75;103965.56;5062328;28;20475;-87
2022/01/18 04:06:54;;;;;;;0.10;0.10;;;;;;;5.78;68.54;103974.16;5063824;28;20059;-87
2022/01/18 04:09:20;;;;;;;0.17;0.17;;;;;;;5.78;68.81;103974.16;5052264;28;20029;-87
2022/01/18 04:11:47;;;;;;;0.10;0.10;;;;;;;5.76;68.81;103981.06;5052434;28;20533;-87
2022/01/18 04:14:13;;;;;;;0.10;0.10;;;;;;;5.74;68.88;103992.34;5061962;28;20037;-86
2022/01/18 04:16:57;;;;;;;0.10;0.10;;;;;;;5.72;68.86;103983.44;5056151;28;20491;-86
2022/01/18 04:27:52;;;;;;;0.20;0.20;;;;;;;5.67;69.10;103989.38;5046653;28;20052;-86
2022/01/18 04:30:18;;;;;;;0.38;0.38;;;;;;;5.67;69.11;103988.50;5040746;28;20388;-87
2022/01/18 04:32:45;;;;;;;0.10;0.10;;;;;;;5.66;68.83;103989.31;5053045;28;20036;-86
2022/01/18 04:35:11;;;;;;;0.10;0.10;;;;;;;5.65;68.87;103995.41;5048846;28;20029;-86
2022/01/18 04:37:37;;;;;;;0.10;0.10;;;;;;;5.64;69.01;103994.47;5041792;28;20582;-84
2022/01/18 04:40:11;;;;;;;0.13;0.13;;;;;;;5.63;69.04;103994.41;5045149;28;20663;-86
2022/01/18 04:43:00;;;;;;;0.10;0.10;;;;;;;5.63;68.80;103999.66;5047458;28;20499;-86
2022/01/18 04:48:28;;;;;;;0.20;0.20;;;;;;;5.58;68.72;103996.81;5035516;28;20124;-85
2022/01/18 04:53:58;;;;;;;0.15;0.15;;;;;;;5.59;68.97;103990.72;5092216;22;20445;-92
2022/01/18 04:59:18;;;;;;;0.20;0.20;;;;;;;5.59;69.08;103988.06;5055876;28;20597;-89
2022/01/18 05:01:49;;;;;;;0.10;0.10;;;;;;;5.59;68.95;103992.44;5069715;28;20030;-94
2022/01/18 05:04:31;;;;;;;0.10;0.10;;;;;;;5.66;68.81;103994.56;5063351;28;20035;-90
2022/01/18 05:07:01;;;;;;;0.10;0.10;;;;;;;5.59;68.92;103984.56;5070022;28;20037;-89
2022/01/18 05:09:30;;;;;;;0.10;0.10;;;;;;;5.63;68.99;103983.88;5070349;28;20031;-90
2022/01/18 05:12:06;;;;;;;0.10;0.10;;;;;;;5.59;69.16;103987.19;5069837;28;20031;-91
2022/01/18 05:14:35;;;;;;;0.10;0.10;;;;;;;5.59;69.10;103987.19;5074719;28;20059;-90
2022/01/18 05:17:21;;;;;;;0.10;0.10;;;;;;;5.59;68.89;103988.06;5083866;28;20027;-89
2022/01/18 05:20:35;;;;;;;0.20;0.20;;;;;;;5.60;69.11;103989.88;5085756;28;20063;-90
2022/01/18 05:23:04;;;;;;;0.20;0.20;;;;;;;5.58;69.00;103991.56;5080977;28;20047;-90
2022/01/18 05:25:46;;;;;;;0.10;0.10;;;;;;;5.55;68.69;103991.38;5072800;28;20497;-90
2022/01/18 05:28:14;;;;;;;0.10;0.10;;;;;;;5.50;68.48;103987.63;5078029;28;20040;-89
2022/01/18 05:30:45;;;;;;;0.10;0.10;;;;;;;5.44;68.15;103990.81;5060649;28;20385;-89
2022/01/18 05:33:12;;;;;;;0.10;0.10;;;;;;;5.32;67.90;103992.81;5085366;28;20028;-89
2022/01/18 05:35:43;;;;;;;0.15;0.15;;;;;;;5.25;67.66;103995.97;5077817;28;20029;-90
2022/01/18 05:38:10;;;;;;;0.10;0.10;;;;;;;5.15;67.59;104003.34;5086058;28;20086;-95
2022/01/18 05:40:37;;;;;;;0.13;0.13;;;;;;;5.12;67.77;103994.38;5080618;28;20029;-90
2022/01/18 05:43:30;;;;;;;0.10;0.10;;;;;;;5.13;68.10;103996.19;5083013;28;20033;-90
2022/01/18 05:46:10;;;;;;;0.10;0.10;;;;;;;5.10;67.85;103999.56;5078302;28;20064;-91
2022/01/18 05:48:37;;;;;;;0.10;0.10;;;;;;;5.10;68.14;103996.94;5080040;28;20032;-90
2022/01/18 05:51:06;;;;;;;0.20;0.20;;;;;;;5.11;68.19;103997.81;5087583;28;20116;-89
2022/01/18 05:53:39;;;;;;;0.10;0.10;;;;;;;5.13;68.06;104004.97;5071453;28;20099;-90
2022/01/18 05:56:16;;;;;;;0.10;0.10;;;;;;;5.09;67.95;104000.38;5069659;28;20491;-91
2022/01/18 05:59:05;;;;;;;0.10;0.10;;;;;;;5.08;67.81;103998.56;5076195;28;20036;-90
2022/01/18 06:02:02;;;;;;;0.10;0.10;;;;;;;5.15;67.96;103994.56;5074473;28;20028;-91
2022/01/18 06:08:04;;;;;;;0.20;0.20;;;;;;;5.20;68.37;103995.72;5052357;28;20621;-90
2022/01/18 06:10:48;;;;;;;0.10;0.10;;;;;;;5.26;68.37;103998.66;5057370;28;20112;-89
2022/01/18 06:13:33;;;;;;;0.10;0.10;;;;;;;5.31;68.29;103996.28;5049282;28;20472;-90
2022/01/18 06:16:02;;;;;;;0.28;0.28;;;;;;;5.28;68.39;103990.84;5050662;28;20024;-90
2022/01/18 06:18:45;;;;;;;0.15;0.15;;;;;;;5.37;68.50;103990.44;5052378;28;20032;-90
2022/01/18 06:21:28;;;;;;;0.10;0.10;;;;;;;5.32;68.70;103987.53;5054479;28;20060;-91
2022/01/18 06:24:11;;;;;;;0.20;0.20;;;;;;;5.40;68.57;103994.13;5066932;28;20064;-89
2022/01/18 06:27:44;;;;;;;0.10;0.10;;;;;;;5.46;68.37;103991.81;5060601;28;20033;-90
2022/01/18 06:35:24;;;;;;;0.20;0.20;;;;;;;5.47;68.52;103995.34;5887619;23;20104;-90
2022/01/18 06:37:56;;;;;;;0.10;0.10;;;;;;;5.49;68.56;104002.47;5023964;28;20068;-90
2022/01/18 06:40:31;;;;;;;0.77;0.55;;;;;;;5.50;68.57;103998.13;5027449;28;20065;-91
2022/01/18 06:43:01;;;;;;;0.10;0.10;;;;;;;5.54;68.53;103994.84;5010040;28;20034;-88
2022/01/18 06:45:30;;;;;;;0.10;0.10;;;;;;;5.58;68.40;104001.16;5015490;28;20053;-89
2022/01/18 06:47:56;;;;;;;0.20;0.20;;;;;;;5.58;68.38;103995.91;5011825;28;20037;-89
2022/01/18 06:50:25;;;;;;;0.10;0.10;;;;;;;5.62;68.41;103998.78;5018012;28;20080;-89
2022/01/18 06:52:51;;;;;;;0.20;0.20;;;;;;;5.60;68.18;103992.53;5006823;28;20057;-89
2022/01/18 06:55:18;;;;;;;0.13;0.13;;;;;;;5.57;68.27;103996.72;5013174;28;20033;-88
2022/01/18 06:57:44;;;;;;;0.10;0.10;;;;;;;5.60;68.08;103989.88;5009758;28;20026;-92
2022/01/18 07:00:10;;;;;;;0.10;0.10;;;;;;;5.62;68.15;103998.78;5007981;28;20041;-87
2022/01/18 07:02:37;;;;;;;0.10;0.10;;;;;;;5.59;68.59;104001.22;5009822;28;20103;-88
2022/01/18 07:05:03;;;;;;;0.10;0.10;;;;;;;5.58;68.43;103996.81;5006620;28;20034;-89
2022/01/18 07:07:29;;;;;;;0.10;0.10;;;;;;;5.59;68.46;103997.72;5011841;28;20060;-87
2022/01/18 07:09:56;;;;;;;0.45;0.45;;;;;;;5.61;68.70;104001.34;5003058;28;20025;-82
2022/01/18 07:12:23;;;;;;;0.10;0.10;;;;;;;5.64;68.51;103998.84;5013489;28;20381;-88
2022/01/18 07:14:54;;;;;;;0.10;0.10;;;;;;;5.71;68.67;104003.59;5012174;28;20065;-91
2022/01/18 07:17:20;;;;;;;0.20;0.20;;;;;;;5.70;68.81;104011.44;5014194;28;20388;-89
2022/01/18 07:19:47;;;;;;;0.10;0.10;;;;;;;5.70;68.51;104011.44;5014625;28;20037;-88
2022/01/18 07:22:13;;;;;;;0.15;0.15;;;;;;;5.73;68.42;104006.31;5005961;28;20045;-88
2022/01/18 07:24:42;;;;;;;0.10;0.10;;;;;;;5.74;68.31;104011.63;5006899;28;20038;-89
2022/01/18 07:27:10;;;;;;;0.10;0.10;;;;;;;5.74;68.55;104009.00;5014036;28;20560;-88
2022/01/18 07:29:38;;;;;;;0.10;0.10;;;;;;;5.70;68.24;104011.44;5014106;28;20080;-88
2022/01/18 07:32:05;;;;;;;0.30;0.30;;;;;;;5.78;68.43;104011.00;5009000;28;20059;-88
2022/01/18 07:34:34;;;;;;;0.10;0.10;;;;;;;5.78;68.79;104016.25;5014010;28;20086;-88
2022/01/18 07:37:00;;;;;;;0.10;0.10;;;;;;;5.81;68.61;104016.41;5010661;28;20069;-88
2022/01/18 07:39:26;;;;;;;0.10;0.10;;;;;;;5.85;68.63;104021.84;5014227;28;20524;-87
2022/01/18 07:41:53;;;;;;;0.10;0.10;;;;;;;5.88;68.44;104021.97;5006150;28;20088;-87
2022/01/18 07:44:19;;;;;;;0.13;0.13;;;;;;;5.82;68.40;104020.84;5012819;28;20062;-87
2022/01/18 07:46:45;;;;;;;0.20;0.20;;;;;;;5.82;68.63;104027.84;5013107;28;20026;-87
2022/01/18 07:49:11;;;;;;;0.50;0.50;;;;;;;5.82;68.50;104028.72;5014130;28;20489;-87
2022/01/18 07:51:37;;;;;;;0.10;0.10;;;;;;;5.85;68.83;104032.34;5008209;28;20105;-87
2022/01/18 07:54:04;;;;;;;0.10;0.10;;;;;;;5.90;69.01;104036.13;5014123;28;20044;-85
2022/01/18 07:56:30;;;;;;;1.65;1.45;;;;;;;5.91;68.65;104038.81;5012523;28;20033;-87
2022/01/18 07:58:56;;;;;;;0.10;0.10;;;;;;;5.96;69.60;104042.59;5012285;28;20030;-86
2022/01/18 08:01:22;;;;;;;0.10;0.10;;;;;;;5.94;68.97;104043.34;5004707;28;20508;-86
2022/01/18 08:03:48;;;;;;;0.10;0.10;;;;;;;5.98;69.06;104034.75;5004349;28;20552;-87
2022/01/18 08:06:14;;;;;;;0.10;0.10;;;;;;;5.99;69.09;104041.88;5007193;28;20124;-88
2022/01/18 08:08:40;;;;;;;0.10;0.10;;;;;;;6.05;69.24;104036.03;5009840;28;20504;-89
2022/01/18 08:11:07;;;;;;;0.10;0.10;;;;;;;6.08;69.20;104030.91;4997759;28;20029;-88
2022/01/18 08:13:40;;;;;;;0.10;0.10;;;;;;;6.11;69.33;104026.69;5011023;28;20604;-88
2022/01/18 08:16:22;;;;;;;0.10;0.10;;;;;;;6.18;69.42;104029.63;5011444;28;20041;-89
2022/01/18 08:18:50;;;;;;;0.20;0.20;;;;;;;6.17;69.39;104033.09;5012100;28;20082;-85
2022/01/18 08:21:16;;;;;;;0.10;0.10;;;;;;;6.23;69.70;104031.69;5011739;28;20022;-88
2022/01/18 08:23:42;;;;;;;0.10;0.10;;;;;;;6.26;69.24;104033.56;5008200;28;20084;-87
2022/01/18 08:26:09;;;;;;;0.30;0.30;;;;;;;6.33;69.48;104030.41;5011167;28;20108;-89
2022/01/18 08:28:35;;;;;;;0.10;0.10;;;;;;;6.39;69.68;104025.44;5008152;28;20121;-89
2022/01/18 08:31:01;;;;;;;0.10;0.10;;;;;;;6.42;69.64;104025.56;5003686;28;20152;-89
2022/01/18 08:33:27;;;;;;;0.10;0.10;;;;;;;6.43;69.68;104034.38;4997728;28;20030;-87
2022/01/18 08:35:54;;;;;;;0.10;0.10;;;;;;;6.45;69.72;104033.59;5013651;28;20109;-88
2022/01/18 08:38:22;;;;;;;0.10;0.10;;;;;;;6.48;69.44;104025.88;5011799;28;20034;-91
2022/01/18 08:40:48;;;;;;;0.10;0.10;;;;;;;6.51;69.57;104021.59;5012282;28;20034;-87
2022/01/18 08:43:14;;;;;;;0.38;0.38;;;;;;;6.56;69.61;104027.97;5011961;28;20375;-86
2022/01/18 08:45:41;;;;;;;0.10;0.10;;;;;;;6.58;69.75;104040.41;5010471;28;20026;-86
2022/01/18 08:48:07;;;;;;;0.15;0.15;;;;;;;6.61;69.88;104034.38;5011777;28;20501;-85
2022/01/18 08:50:33;;;;;;;1.05;1.05;;;;;;;6.64;69.78;104039.78;5011754;28;20085;-86
2022/01/18 08:52:59;;;;;;;0.20;0.20;;;;;;;6.69;69.74;104033.00;5011703;28;20034;-86
2022/01/18 08:55:26;;;;;;;0.10;0.10;;;;;;;6.80;69.76;104044.03;5010401;28;21413;-87
2022/01/18 08:57:52;;;;;;;0.25;0.25;;;;;;;6.85;69.69;104033.72;5008993;28;20034;-87
2022/01/18 09:00:19;;;;;;;0.10;0.10;;;;;;;6.93;69.88;104032.38;5007010;28;20030;-87
2022/01/18 09:02:45;;;;;;;0.17;0.17;;;;;;;6.95;69.86;104031.59;4994471;28;20069;-88
2022/01/18 09:05:11;;;;;;;0.15;0.15;;;;;;;6.98;70.00;104041.38;4993911;28;20062;-88
2022/01/18 09:07:39;;;;;;;0.10;0.10;;;;;;;7.03;69.75;104036.28;5011106;28;20501;-88
2022/01/18 09:10:09;;;;;;;0.10;0.10;;;;;;;7.06;69.48;104034.72;5011047;28;20051;-88
2022/01/18 09:12:36;;;;;;;0.10;0.10;;;;;;;7.12;69.77;104045.53;5005284;28;20038;-88
2022/01/18 09:15:05;;;;;;;0.20;0.20;;;;;;;7.15;70.05;104039.50;4998167;28;20154;-88
2022/01/18 09:17:33;;;;;;;0.10;0.10;;;;;;;7.18;69.79;104039.66;5002871;28;20397;-88
2022/01/18 09:20:05;;;;;;;0.20;0.20;;;;;;;7.28;69.66;104039.22;4994375;28;20030;-88
2022/01/18 09:22:34;;;;;;;0.20;0.20;;;;;;;7.29;70.05;104037.50;5008264;28;20112;-88
2022/01/18 09:25:03;;;;;;;0.10;0.10;;;;;;;7.32;69.91;104048.19;5010951;28;20425;-87
2022/01/18 09:27:29;;;;;;;0.10;0.10;;;;;;;7.34;70.10;104042.97;5010335;28;20396;-88
2022/01/18 09:29:55;;;;;;;0.10;0.10;;;;;;;7.37;70.13;104033.47;4997650;28;20056;-88
2022/01/18 09:32:22;;;;;;;0.10;0.10;;;;;;;7.39;70.02;104045.00;5007383;28;20093;-87
2022/01/18 09:34:49;;;;;;;0.20;0.20;;;;;;;7.44;70.00;104046.09;5018612;28;20045;-87
2022/01/18 09:37:16;;;;;;;0.10;0.10;;;;;;;7.35;69.75;104043.06;5010794;28;20018;-88
2022/01/18 09:39:42;;;;;;;0.13;0.13;;;;;;;7.40;69.51;104040.63;5014035;28;20038;-88
2022/01/18 09:42:10;;;;;;;0.15;0.15;;;;;;;7.51;69.45;104038.47;5015249;28;20485;-87
2022/01/18 09:44:37;;;;;;;0.20;0.20;;;;;;;7.52;69.94;104051.72;5015196;28;20033;-86
2022/01/18 09:47:05;;;;;;;0.10;0.10;;;;;;;7.49;69.88;104051.59;5015398;28;20496;-87
2022/01/18 09:49:32;;;;;;;0.10;0.10;;;;;;;7.59;70.08;104050.28;5014020;28;20096;-87
2022/01/18 09:51:59;;;;;;;0.10;0.10;;;;;;;7.67;69.70;104047.97;5006189;28;20117;-87
2022/01/18 09:54:25;;;;;;;0.10;0.10;;;;;;;7.68;69.99;104052.41;5006507;28;20029;-87
2022/01/18 09:56:52;;;;;;;0.20;0.20;;;;;;;7.68;69.73;104055.03;5006699;28;20026;-87
2022/01/18 09:59:18;;;;;;;0.17;0.17;;;;;;;7.66;70.13;104054.06;5007200;28;20109;-86
2022/01/18 10:01:45;;;;;;;0.20;0.20;;;;;;;7.72;69.93;104059.63;5005047;28;20029;-87
2022/01/18 10:06:57;;;;;;;0.10;0.10;;;;;;;7.80;70.41;104047.66;5066693;28;20406;-87
2022/01/18 10:09:25;;;;;;;0.10;0.10;;;;;;;7.73;69.82;104050.88;5065729;28;20036;-88
2022/01/18 10:15:00;;;;;;;0.10;0.10;;;;;;;7.84;70.08;104044.31;5053809;27;20565;-87
2022/01/18 10:27:51;;;;;;;0.10;0.10;;;;;;;7.75;70.36;104044.81;5075308;22;20052;-87
2022/01/18 10:30:32;;;;;;;0.10;0.10;;;;;;;7.78;70.42;104039.66;5067199;28;20032;-86
2022/01/18 10:33:14;;;;;;;0.10;0.10;;;;;;;7.87;70.24;104043.53;5067089;28;20051;-86
2022/01/18 10:38:48;;;;;;;0.10;0.10;;;;;;;7.88;70.42;104042.72;5068179;28;20067;-87
2022/01/18 10:41:28;;;;;;;0.20;0.20;;;;;;;7.94;70.46;104043.84;5062359;28;20036;-88
2022/01/18 10:44:07;;;;;;;0.20;0.20;;;;;;;7.94;70.98;104040.31;5057165;28;20033;-87
2022/01/18 10:46:36;;;;;;;0.10;0.10;;;;;;;8.04;70.51;104038.97;5048146;28;20091;-87
2022/01/18 10:49:03;;;;;;;0.10;0.10;;;;;;;8.06;70.86;104040.84;5048631;28;20440;-87
2022/01/18 10:51:31;;;;;;;0.10;0.10;;;;;;;8.17;70.21;104043.03;5048149;28;20021;-87
2022/01/18 10:53:59;;;;;;;0.10;0.10;;;;;;;8.09;70.26;104043.59;5061248;22;20041;-92
2022/01/18 10:56:36;;;;;;;0.10;0.10;;;;;;;8.17;70.85;104048.31;5028475;28;20069;-92
2022/01/18 10:59:02;;;;;;;0.90;0.90;;;;;;;8.24;70.34;104039.81;5029100;28;20026;-92
2022/01/18 11:01:28;;;;;;;0.10;0.10;;;;;;;8.28;71.07;104044.38;5043944;28;20072;-92
2022/01/18 11:04:15;;;;;;;0.00;0.00;;;;;;;8.40;70.36;104029.00;5048695;28;20150;-89
2022/01/18 11:06:55;;;;;;;0.17;0.17;;;;;;;8.37;70.50;104034.19;5049778;28;20380;-87
2022/01/18 11:09:22;;;;;;;0.30;0.30;;;;;;;8.36;71.04;104024.47;5049590;28;20025;-88
2022/01/18 11:11:49;;;;;;;0.30;0.30;;;;;;;8.39;70.87;104023.69;5034448;28;20400;-90
2022/01/18 11:14:19;;;;;;;0.25;0.25;;;;;;;8.45;70.82;104023.00;5049018;28;20124;-89
2022/01/18 11:16:48;;;;;;;0.10;0.10;;;;;;;8.39;70.49;104024.56;5045975;28;20049;-90
2022/01/18 11:22:11;;;;;;;0.10;0.10;;;;;;;8.48;70.50;104016.13;5085323;27;20417;-88
2022/01/18 11:24:43;;;;;;;0.20;0.20;;;;;;;8.42;70.59;104014.13;5052243;28;20468;-89
2022/01/18 11:27:14;;;;;;;0.20;0.20;;;;;;;8.56;70.23;104012.06;5048027;28;20033;-87
2022/01/18 11:29:43;;;;;;;0.10;0.10;;;;;;;8.54;70.41;104008.47;5052718;28;20021;-87
2022/01/18 11:32:11;;;;;;;0.10;0.10;;;;;;;8.62;70.18;104011.38;5067468;28;20376;-88
2022/01/18 11:40:16;;;;;;;0.10;0.10;;;;;;;8.56;70.46;104017.34;5060766;28;20478;-89
2022/01/18 11:45:29;;;;;;;1.60;1.10;;;;;;;8.62;70.56;104019.31;5071279;28;20410;-89
2022/01/18 11:56:39;;;;;;;0.20;0.20;;;;;;;8.78;70.49;103999.66;5090127;27;20417;-88
2022/01/18 11:59:17;;;;;;;0.10;0.10;;;;;;;8.78;70.04;104001.44;5071532;28;20442;-91
2022/01/18 12:02:00;;;;;;;5.82;1.85;;;;;;;8.80;70.00;103997.06;5063142;28;20018;-87
2022/01/18 12:04:53;;;;;;;;;;;;;;;8.91;69.71;104001.06;5047265;28;20025;-89
2022/01/18 12:13:34;;;;;;;0.10;0.10;;;;;;;8.78;70.16;103993.50;5053726;27;20438;-85
2022/01/18 12:16:04;;;;;;;0.70;0.70;;;;;;;8.74;69.72;103990.72;5041997;28;20033;-89
2022/01/18 12:18:32;;;;;;;0.20;0.20;;;;;;;8.72;70.17;103987.13;5038001;28;20112;-88
2022/01/18 12:21:03;;;;;;;0.85;0.80;;;;;;;8.76;70.01;103989.88;5031247;28;20344;-89
2022/01/18 12:23:45;;;;;;;0.10;0.10;;;;;;;8.87;69.68;103999.13;5040927;22;20014;-85
2022/01/18 12:40:21;;;;;;;0.10;0.10;;;;;;;9.00;69.35;103993.47;5088072;27;20428;-88
2022/01/18 12:45:43;;;;;;;0.30;0.30;;;;;;;9.14;69.60;103983.38;5070174;28;20457;-87
2022/01/18 12:48:13;;;;;;;0.20;0.20;;;;;;;9.18;69.41;103977.38;5068542;28;20051;-87
2022/01/18 12:56:09;;;;;;;0.10;0.10;;;;;;;9.10;69.00;103973.53;5068292;28;20419;-88
2022/01/18 12:58:38;;;;;;;0.10;0.10;;;;;;;9.10;69.63;103968.25;5068276;28;20020;-88
2022/01/18 13:01:11;;;;;;;0.10;0.10;;;;;;;9.12;69.68;103970.94;5031421;28;20109;-88
2022/01/18 13:06:35;;;;;;;0.10;0.10;;;;;;;9.02;69.74;103965.34;5089317;27;20870;-88
2022/01/18 13:09:03;;;;;;;0.73;0.73;;;;;;;9.03;69.37;103961.84;5068406;28;20043;-88
2022/01/18 13:11:32;;;;;;;0.30;0.30;;;;;;;9.10;69.35;103959.41;5068631;28;20590;-88
2022/01/18 13:14:12;;;;;;;0.50;0.50;;;;;;;9.09;69.15;103960.28;5061769;28;20484;-89
2022/01/18 13:25:14;;;;;;;0.20;0.20;;;;;;;9.20;68.87;103954.50;5068901;28;20048;-87
2022/01/18 13:27:45;;;;;;;0.10;0.10;;;;;;;9.08;68.58;103946.13;5069135;28;20037;-87
2022/01/18 13:30:20;;;;;;;0.20;0.20;;;;;;;9.11;68.65;103943.59;5057512;28;20029;-87
2022/01/18 13:32:47;;;;;;;0.10;0.10;;;;;;;9.09;68.78;103934.69;5064225;28;20032;-87
2022/01/18 13:35:16;;;;;;;0.10;0.10;;;;;;;9.11;69.10;103937.41;5068689;28;20033;-87
2022/01/18 13:37:42;;;;;;;0.40;0.40;;;;;;;9.14;68.54;103932.22;5068871;28;20032;-87
2022/01/18 13:40:14;;;;;;;3.17;2.60;;;;;;;9.23;68.57;103932.53;5058201;28;20029;-88
2022/01/18 13:42:46;;;;;;;0.10;0.10;;;;;;;9.28;68.44;103920.38;5063044;28;20106;-89
2022/01/18 13:45:19;;;;;;;0.22;0.22;;;;;;;9.28;68.43;103920.38;5068747;28;20519;-88
2022/01/18 13:50:30;;;;;;;0.60;0.60;;;;;;;9.27;68.05;103917.69;5088757;27;20431;-88
2022/01/18 13:52:58;;;;;;;5.07;1.85;;;;;;;9.30;68.33;103918.69;5069143;28;20403;-88
2022/01/18 13:55:26;;;;;;;0.63;0.63;;;;;;;9.33;68.25;103912.59;5050527;28;20392;-88
2022/01/18 13:57:56;;;;;;;0.22;0.22;;;;;;;9.41;68.28;103907.56;5049032;28;20048;-89
2022/01/18 14:00:27;;;;;;;0.10;0.10;;;;;;;9.34;67.78;103907.34;5049951;28;20061;-89
2022/01/18 14:02:55;;;;;;;0.10;0.10;;;;;;;9.34;68.41;103904.72;5048805;28;20033;-89
2022/01/18 14:05:24;;;;;;;0.30;0.30;;;;;;;9.29;68.39;103902.78;5048601;28;20039;-89
2022/01/18 14:08:03;;;;;;;1.23;1.17;;;;;;;9.24;67.83;103907.91;5049127;28;20473;-87
2022/01/18 14:10:30;;;;;;;1.80;0.60;;;;;;;9.26;68.35;103900.00;5048628;28;20037;-88
2022/01/18 14:12:56;;;;;;;1.65;0.95;;;;;;;9.23;68.20;103896.41;5048361;28;20069;-88
2022/01/18 14:15:40;;;;;;;0.20;0.20;;;;;;;9.28;67.78;103898.31;5048401;28;20061;-87
2022/01/18 14:18:07;;;;;;;4.38;0.90;;;;;;;9.03;68.46;103902.75;5048341;28;20029;-88
2022/01/18 14:20:34;;;;;;;0.82;0.82;;;;;;;8.99;68.32;103900.84;5047174;28;20484;-88
2022/01/18 14:23:02;;;;;;;0.30;0.30;;;;;;;8.96;68.89;103893.69;5047706;28;20033;-88
2022/01/18 14:25:31;;;;;;;0.20;0.20;;;;;;;8.92;68.62;103898.81;5048204;28;20029;-88
2022/01/18 14:28:09;;;;;;;0.10;0.10;;;;;;;9.02;68.44;103888.63;5048257;28;20048;-88
2022/01/18 14:30:35;;;;;;;0.10;0.10;;;;;;;8.95;68.87;103891.91;5047365;28;20430;-87
2022/01/18 14:33:06;;;;;;;0.15;0.15;;;;;;;8.97;68.21;103887.56;5047197;28;20038;-88
2022/01/18 14:35:41;;;;;;;2.30;2.05;;;;;;;9.02;68.73;103875.41;5045927;28;20468;-88
2022/01/18 14:38:11;;;;;;;0.47;0.38;;;;;;;9.04;68.77;103878.09;5047736;28;20033;-87
2022/01/18 14:40:44;;;;;;;0.20;0.20;;;;;;;9.03;68.21;103878.94;5047206;28;20049;-88
2022/01/18 14:43:27;;;;;;;0.20;0.20;;;;;;;8.97;69.05;103879.63;5044927;28;20029;-88
2022/01/18 14:46:03;;;;;;;;;;;;;;;9.15;68.58;103882.00;5047847;28;20021;-88
2022/01/18 14:48:32;;;;;;;1.00;1.00;;;;;;;9.02;68.54;103875.41;5047920;28;19917;-88
2022/01/18 14:50:59;;;;;;;0.10;0.10;;;;;;;8.87;68.80;103873.13;5047394;28;20033;-88
2022/01/18 14:53:25;;;;;;;0.50;0.50;;;;;;;8.87;68.77;103874.84;5047332;28;20037;-88
2022/01/18 14:55:53;;;;;;;0.70;0.68;;;;;;;8.92;68.79;103867.97;5047239;28;20025;-88
2022/01/18 14:58:19;;;;;;;0.20;0.20;;;;;;;8.80;68.40;103865.81;5047153;28;20037;-88
2022/01/18 15:00:46;;;;;;;0.10;0.10;;;;;;;8.83;68.43;103865.00;5039272;28;20033;-87
2022/01/18 15:03:13;;;;;;;0.20;0.20;;;;;;;8.83;68.32;103849.16;5033585;28;20163;-87
2022/01/18 15:05:40;;;;;;;0.85;0.85;;;;;;;8.88;68.82;103844.91;5033833;28;20040;-87
2022/01/18 15:08:07;;;;;;;0.80;0.80;;;;;;;8.91;68.59;103850.34;5033761;28;20022;-88